Página principal
METAR-TAF:

METAR-TAF

Aeroportos :

Aeroporto de Praga

Praga, República Checa

latitude: 50-06N, longitude: 014-15E, altura: 365 m

Observação actual do tempo

O boletim foi feito há 33 minutos, às 00:00 UTC
Vento 9 kt de sudoeste
Temperatura 17°C
Humidade 68%
Pressão 1021 hPa
Visibilidade 10 km ou mais
sem nuvens abaixo de 1500 metros e sem cumulonimbus

METAR: LKPR 200000Z 23009KT CAVOK 17/11 Q1021 NOSIG

Hora: 02:33 (00:33 UTC)

Previsão

O boletim foi feito há 1 hora e 33 minutos, às 23:00 UTC
Previsão válida de 20 às 00 UTC a 21 às 06 UTC
Vento 6 kt de su-sudoeste
Visibilidade 10 km ou mais
sem nuvens abaixo de 1500 metros e sem cumulonimbus
Temporariamente
de 20 às 03 UTC a 20 às 06 UTC
Visibilidade: 3000 m
neblina
Temporariamente
de 20 às 12 UTC a 20 às 16 UTC
Visibilidade 10 km ou mais
Nuvens dispersasa uma altura de 7000 ft, Cumulonimbus.

TAF: LKPR 192300Z 2000/2106 21006KT CAVOK TEMPO 2003/2006 3000 BR NSC TEMPO 2012/2016 9999 SCT070CB

Observações e previsões do tempo de mais de 4000 aeroportos (mensagens METAR e TAF).

As estações disponíveis são os pontos amarelos e vermelhos sobre o mapa.

Mova o rato sobre o mapa para ver o nome da estação.

Depois clique no ponto para visualizar as observações e previsões meteorológicas.

Para alterar o mapa : clique nos botões verdes com uma cruz preta para aumentar o zoom; no botão verde com uma pitada de zoom; ou nas setas verdes para mapas adjacentes.


METAR-TAF: